createdAt,value
2022-11-12T05:00:36.090Z,100333.38
2022-11-12T05:05:06.620Z,100329.41
2022-11-12T05:09:37.077Z,100331.69
2022-11-12T05:14:07.500Z,100325.69
2022-11-12T05:18:37.713Z,100328.94
2022-11-12T05:23:08.050Z,100326.72
2022-11-12T05:27:38.261Z,100320.66
2022-11-12T05:32:11.743Z,100316.84
2022-11-12T05:36:42.145Z,100316.59
2022-11-12T05:41:17.284Z,100325.13
2022-11-12T05:45:49.865Z,100328.31
2022-11-12T05:50:20.252Z,100331.47
2022-11-12T05:54:50.614Z,100329.06
2022-11-12T05:59:21.078Z,100326.53
2022-11-12T06:03:51.499Z,100327.28
2022-11-12T06:08:22.049Z,100327.66
2022-11-12T06:12:52.999Z,100340.66
2022-11-12T06:17:23.333Z,100336.88
2022-11-12T06:21:53.691Z,100344.13
2022-11-12T06:26:28.796Z,100353.47
2022-11-12T06:30:59.041Z,100358.56
2022-11-12T06:35:29.334Z,100365.09
2022-11-12T06:39:59.563Z,100358.97
2022-11-12T06:44:29.952Z,100360.28
2022-11-12T06:49:00.351Z,100369.84
2022-11-12T06:53:30.739Z,100371.03
2022-11-12T06:58:01.082Z,100375.06
2022-11-12T07:02:31.323Z,100376.91
2022-11-12T07:07:01.464Z,100380.91
2022-11-12T07:11:31.991Z,100395.47
2022-11-12T07:16:03.293Z,100402.41
2022-11-12T07:20:33.497Z,100412.41
2022-11-12T07:25:04.408Z,100409.72
2022-11-12T07:29:47.020Z,100408.59
2022-11-12T07:34:17.916Z,100414.59
2022-11-12T07:38:51.885Z,100414.28
2022-11-12T07:43:22.156Z,100422.13
2022-11-12T07:47:52.290Z,100420.69
2022-11-12T07:52:22.399Z,100420.53
2022-11-12T07:56:52.746Z,100418.44
2022-11-12T08:01:33.161Z,100422.00
2022-11-12T08:06:04.259Z,100416.22
2022-11-12T08:10:34.044Z,100419.06
2022-11-12T08:15:04.195Z,100418.41
2022-11-12T08:19:34.194Z,100424.06
2022-11-12T08:24:04.549Z,100420.94
2022-11-12T08:28:36.481Z,100411.88
2022-11-12T08:33:07.001Z,100417.22
2022-11-12T08:37:37.165Z,100410.06
2022-11-12T08:42:07.006Z,100408.53
2022-11-12T08:46:37.228Z,100409.53
2022-11-12T08:51:08.195Z,100417.22
2022-11-12T08:55:38.246Z,100409.38
2022-11-12T09:00:10.987Z,100409.34
2022-11-12T09:04:40.830Z,100412.47
2022-11-12T09:09:10.798Z,100407.25
2022-11-12T09:13:41.127Z,100409.72
2022-11-12T09:18:14.626Z,100410.53
2022-11-12T09:22:44.687Z,100414.34
2022-11-12T09:27:15.015Z,100413.38
2022-11-12T09:31:44.932Z,100405.94
2022-11-12T09:36:17.518Z,100407.41
2022-11-12T09:41:01.428Z,100397.56
2022-11-12T09:45:32.726Z,100399.63
2022-11-12T09:50:27.084Z,100406.72
2022-11-12T09:55:17.153Z,100406.66
2022-11-12T09:59:47.306Z,100404.13
2022-11-12T10:04:30.864Z,100416.81
2022-11-12T10:09:22.936Z,100397.22
2022-11-12T10:14:13.497Z,100382.13
2022-11-12T10:19:28.531Z,100384.22
2022-11-12T10:24:00.932Z,100377.22
2022-11-12T10:28:40.027Z,100378.91
2022-11-12T10:33:16.109Z,100375.94
2022-11-12T10:37:59.561Z,100373.47
2022-11-12T10:42:29.902Z,100371.63
2022-11-12T10:47:22.996Z,100378.91
2022-11-12T10:51:58.257Z,100363.66
2022-11-12T10:56:32.403Z,100357.50
2022-11-12T11:01:15.290Z,100351.13
2022-11-12T11:05:57.419Z,100347.56
2022-11-12T11:10:33.890Z,100340.72
2022-11-12T11:15:21.082Z,100327.78
2022-11-12T11:19:50.956Z,100335.75
2022-11-12T11:24:47.778Z,100327.06
2022-11-12T11:29:39.290Z,100334.59
2022-11-12T11:34:27.465Z,100334.13
2022-11-12T11:39:31.155Z,100330.22
2022-11-12T11:44:25.767Z,100319.31
2022-11-12T11:49:33.740Z,100319.25
2022-11-12T11:54:22.637Z,100313.09
2022-11-12T11:59:15.313Z,100309.72
2022-11-12T12:04:00.335Z,100306.16
2022-11-12T12:09:08.150Z,100297.69
2022-11-12T12:14:28.756Z,100298.50
2022-11-12T12:19:13.338Z,100286.44
2022-11-12T12:23:48.837Z,100286.06
2022-11-12T12:28:42.199Z,100287.66
2022-11-12T12:33:27.840Z,100278.44
2022-11-12T12:38:36.244Z,100268.69
2022-11-12T12:43:20.861Z,100259.34
2022-11-12T12:47:52.417Z,100259.56
2022-11-12T12:52:22.519Z,100256.84
2022-11-12T12:56:52.870Z,100255.72
2022-11-12T13:01:23.257Z,100251.47
2022-11-12T13:06:06.875Z,100243.78
2022-11-12T13:10:41.248Z,100238.78
2022-11-12T13:15:16.334Z,100230.69
2022-11-12T13:19:58.693Z,100234.13
2022-11-12T13:25:06.268Z,100237.97
2022-11-12T13:29:36.230Z,100219.81
2022-11-12T13:34:22.797Z,100228.31
2022-11-12T13:38:56.482Z,100226.13
2022-11-12T13:43:39.832Z,100226.53
2022-11-12T13:48:17.117Z,100232.16
2022-11-12T13:52:48.510Z,100228.09
2022-11-12T13:57:23.975Z,100228.84
2022-11-12T14:01:55.514Z,100224.28
2022-11-12T14:06:38.572Z,100214.31
2022-11-12T14:11:27.533Z,100219.47
2022-11-12T14:16:05.589Z,100217.69
2022-11-12T14:20:39.463Z,100214.09
2022-11-12T14:25:22.721Z,100211.19
2022-11-12T14:30:10.897Z,100206.84
2022-11-12T14:34:40.829Z,100202.47
2022-11-12T14:39:11.744Z,100198.91
2022-11-12T14:43:47.549Z,100187.72
2022-11-12T14:48:18.169Z,100178.16
2022-11-12T14:52:52.613Z,100171.63
2022-11-12T14:57:32.501Z,100174.66
2022-11-12T15:06:56.794Z,100177.13
2022-11-12T15:11:44.762Z,100172.34
2022-11-12T15:16:27.163Z,100157.41
2022-11-12T15:21:10.791Z,100154.72
2022-11-12T15:25:41.309Z,100153.03
2022-11-12T15:30:23.636Z,100141.00
2022-11-12T15:34:55.713Z,100145.38
2022-11-12T15:39:28.420Z,100144.31
2022-11-12T15:43:58.490Z,100127.94
2022-11-12T15:48:28.744Z,100126.84
2022-11-12T15:52:59.053Z,100131.34
2022-11-12T15:57:32.042Z,100119.63
2022-11-12T16:02:01.940Z,100122.53
2022-11-12T16:06:32.225Z,100111.28
2022-11-12T16:11:02.596Z,100112.16
2022-11-12T16:15:33.517Z,100109.94
2022-11-12T16:20:12.661Z,100112.53
2022-11-12T16:24:42.741Z,100120.09
2022-11-12T16:29:14.015Z,100125.78
2022-11-12T16:33:44.978Z,100122.03
2022-11-12T16:38:17.439Z,100117.75
2022-11-12T16:42:47.547Z,100108.56
2022-11-12T16:47:17.887Z,100098.28
2022-11-12T16:51:48.937Z,100105.72
2022-11-12T16:56:21.547Z,100109.97
2022-11-12T17:00:51.708Z,100110.72
2022-11-12T17:05:24.362Z,100106.25
2022-11-12T17:09:54.355Z,100101.06
2022-11-12T17:14:28.322Z,100105.28
2022-11-12T17:19:02.069Z,100098.31
2022-11-12T17:23:32.741Z,100101.66
2022-11-12T17:28:02.896Z,100094.97
2022-11-12T17:32:33.235Z,100101.31
2022-11-12T17:37:03.679Z,100101.44
2022-11-12T17:41:34.190Z,100107.00
2022-11-12T17:46:05.944Z,100098.03
2022-11-12T17:50:36.531Z,100094.31
2022-11-12T17:55:07.072Z,100090.03
2022-11-12T17:59:36.904Z,100087.22
2022-11-12T18:04:10.452Z,100084.59
2022-11-12T18:08:41.313Z,100076.59
2022-11-12T18:13:11.639Z,100075.91
2022-11-12T18:17:42.250Z,100066.19
2022-11-12T18:22:14.969Z,100061.00
2022-11-12T18:26:45.337Z,100060.19
2022-11-12T18:31:15.720Z,100061.00
2022-11-12T18:35:45.898Z,100054.75
2022-11-12T18:40:16.388Z,100038.94
2022-11-12T18:44:46.501Z,100046.16
2022-11-12T18:49:16.690Z,100045.41
2022-11-12T18:53:47.355Z,100043.53
2022-11-12T18:58:17.517Z,100032.22
2022-11-12T19:02:47.789Z,100043.06
2022-11-12T19:07:18.413Z,100035.84
2022-11-12T19:11:48.645Z,100035.75
2022-11-12T19:16:21.924Z,100024.19
2022-11-12T19:20:51.806Z,100026.91
2022-11-12T19:25:22.492Z,100025.25
2022-11-12T19:29:52.700Z,100038.34
2022-11-12T19:34:23.100Z,100035.84
2022-11-12T19:38:55.920Z,100032.56
2022-11-12T19:43:25.887Z,100031.03
2022-11-12T19:47:56.165Z,100023.44
2022-11-12T19:52:26.589Z,100017.16
2022-11-12T19:56:56.960Z,100010.47
2022-11-12T20:01:27.352Z,100001.84
2022-11-12T20:06:00.888Z,100010.56
2022-11-12T20:10:30.908Z,100001.94
2022-11-12T20:15:01.261Z,100002.44
2022-11-12T20:19:31.670Z,99992.97
2022-11-12T20:24:02.027Z,99990.00
2022-11-12T20:28:33.498Z,99994.59
2022-11-12T20:33:03.941Z,99988.69
2022-11-12T20:37:34.072Z,99985.59
2022-11-12T20:42:04.304Z,99989.34
2022-11-12T20:46:34.647Z,99989.88
2022-11-12T20:51:27.366Z,99994.31
2022-11-12T20:56:07.205Z,99986.31
2022-11-12T21:00:38.773Z,99993.81
2022-11-12T21:05:08.890Z,99986.66
2022-11-12T21:09:39.114Z,99985.22
2022-11-12T21:14:10.681Z,99982.53
2022-11-12T21:18:41.555Z,99978.97
2022-11-12T21:23:12.099Z,99959.03
2022-11-12T21:27:42.272Z,99955.63
2022-11-12T21:32:12.747Z,99948.06
2022-11-12T21:36:43.053Z,99951.81
2022-11-12T21:41:20.899Z,99965.50
2022-11-12T21:45:51.685Z,99959.34
2022-11-12T21:50:21.893Z,99953.56
2022-11-12T21:54:52.208Z,99949.19
2022-11-12T21:59:22.381Z,99945.03
2022-11-12T22:03:54.522Z,99939.47
2022-11-12T22:08:24.877Z,99936.59
2022-11-12T22:13:24.884Z,99937.69
2022-11-12T22:17:45.224Z,99936.13
2022-11-12T22:22:15.477Z,99934.22
2022-11-12T22:26:45.765Z,99935.47
